SWR77T LKPR-LSZH
Flight info
| Callsign | SWR77T |
|---|---|
| Flight time | 1h 15m |
| Altitude | 34000 |
| Route | BALTU DCT DONAD DCT OKG L984 KULOK Z715 ANELA N869 TEDGO/N0421F350 T724 RILAX |
| Aircraft | A20N/M-SDE2E3FGHIJ1RWXY/LB1 |
Departure
| Time | 2026-05-05 18:26 |
|---|---|
| Airport | Václav Havel Airport Prague (LKPR) |
Arrival
| Time | 2026-05-05 19:41 |
|---|---|
| Airport | Zürich Airport (LSZH) |
| Time | Latitude | Longitude | Altitude | Speed | Heading |
|---|---|---|---|---|---|
| 2026-05-05 17:49 | 50.10418 | 14.26643 | 1170 ft | 0 kts | 34° |
| 2026-05-05 18:18 | 50.10401 | 14.26626 | 1170 ft | 4 kts | 19° |
| 2026-05-05 18:18 | 50.10376 | 14.26621 | 1169 ft | 4 kts | 335° |
| 2026-05-05 18:18 | 50.10363 | 14.26637 | 1171 ft | 1 kts | 304° |
| 2026-05-05 18:19 | 50.10361 | 14.26640 | 1171 ft | 0 kts | 304° |
| 2026-05-05 18:21 | 50.10363 | 14.26635 | 1171 ft | 2 kts | 304° |
| 2026-05-05 18:22 | 50.10385 | 14.26586 | 1171 ft | 9 kts | 304° |
| 2026-05-05 18:22 | 50.10427 | 14.26490 | 1171 ft | 13 kts | 304° |
| 2026-05-05 18:22 | 50.10476 | 14.26379 | 1173 ft | 9 kts | 304° |
| 2026-05-05 18:22 | 50.10519 | 14.26281 | 1172 ft | 13 kts | 302° |
| 2026-05-05 18:23 | 50.10533 | 14.26132 | 1174 ft | 16 kts | 262° |
| 2026-05-05 18:23 | 50.10518 | 14.25956 | 1171 ft | 17 kts | 279° |
| 2026-05-05 18:23 | 50.10580 | 14.25792 | 1171 ft | 19 kts | 304° |
| 2026-05-05 18:23 | 50.10639 | 14.25609 | 1172 ft | 19 kts | 274° |
| 2026-05-05 18:24 | 50.10595 | 14.25452 | 1170 ft | 17 kts | 258° |
| 2026-05-05 18:24 | 50.10574 | 14.25283 | 1166 ft | 9 kts | 258° |
| 2026-05-05 18:24 | 50.10573 | 14.25279 | 1167 ft | 0 kts | 258° |
| 2026-05-05 18:24 | 50.10573 | 14.25276 | 1167 ft | 2 kts | 258° |
| 2026-05-05 18:25 | 50.10559 | 14.25205 | 1164 ft | 11 kts | 239° |
| 2026-05-05 18:25 | 50.10510 | 14.25174 | 1167 ft | 12 kts | 171° |
| 2026-05-05 18:25 | 50.10318 | 14.25531 | 1182 ft | 72 kts | 126° |
| 2026-05-05 18:25 | 50.09899 | 14.26404 | 1200 ft | 127 kts | 126° |
| 2026-05-05 18:26 | 50.09287 | 14.27663 | 1392 ft | 152 kts | 127° |
| 2026-05-05 18:26 | 50.08653 | 14.28909 | 2092 ft | 146 kts | 124° |
| 2026-05-05 18:26 | 50.07999 | 14.30244 | 2438 ft | 163 kts | 122° |
| 2026-05-05 18:26 | 50.07332 | 14.31652 | 3052 ft | 164 kts | 123° |
| 2026-05-05 18:27 | 50.06611 | 14.33179 | 3377 ft | 181 kts | 124° |
| 2026-05-05 18:27 | 50.05839 | 14.34801 | 3686 ft | 198 kts | 124° |
| 2026-05-05 18:27 | 50.04971 | 14.36605 | 3937 ft | 217 kts | 125° |
| 2026-05-05 18:27 | 50.04019 | 14.38570 | 4140 ft | 238 kts | 126° |
| 2026-05-05 18:28 | 50.01952 | 14.42822 | 4924 ft | 261 kts | 127° |
| 2026-05-05 18:28 | 50.00855 | 14.45132 | 4998 ft | 268 kts | 121° |
| 2026-05-05 18:28 | 50.00260 | 14.47881 | 5169 ft | 271 kts | 94° |
| 2026-05-05 18:29 | 50.00549 | 14.50771 | 5732 ft | 274 kts | 68° |
| 2026-05-05 18:29 | 50.01633 | 14.53187 | 6307 ft | 279 kts | 42° |
| 2026-05-05 18:29 | 50.02718 | 14.54504 | 6647 ft | 283 kts | 37° |
| 2026-05-05 18:29 | 50.04335 | 14.56327 | 7153 ft | 286 kts | 33° |
| 2026-05-05 18:30 | 50.06193 | 14.57433 | 7637 ft | 291 kts | 7° |
| 2026-05-05 18:30 | 50.08206 | 14.57172 | 8097 ft | 293 kts | 340° |
| 2026-05-05 18:30 | 50.09741 | 14.55866 | 8486 ft | 293 kts | 317° |
| 2026-05-05 18:30 | 50.10693 | 14.54156 | 8820 ft | 290 kts | 298° |
| 2026-05-05 18:31 | 50.11326 | 14.51220 | 9286 ft | 286 kts | 271° |
| 2026-05-05 18:31 | 50.11212 | 14.48162 | 9765 ft | 283 kts | 259° |
| 2026-05-05 18:31 | 50.10911 | 14.45073 | 9943 ft | 294 kts | 259° |
| 2026-05-05 18:31 | 50.10661 | 14.41844 | 10052 ft | 306 kts | 262° |
| 2026-05-05 18:32 | 50.10506 | 14.38483 | 10142 ft | 317 kts | 264° |
| 2026-05-05 18:32 | 50.10421 | 14.34985 | 10224 ft | 327 kts | 266° |
| 2026-05-05 18:32 | 50.10374 | 14.31699 | 10343 ft | 333 kts | 266° |
| 2026-05-05 18:32 | 50.10335 | 14.28070 | 10591 ft | 335 kts | 266° |
| 2026-05-05 18:33 | 50.10298 | 14.24422 | 10849 ft | 337 kts | 266° |
| 2026-05-05 18:33 | 50.10256 | 14.20775 | 11071 ft | 339 kts | 266° |
| 2026-05-05 18:33 | 50.10212 | 14.17106 | 11325 ft | 339 kts | 266° |
| 2026-05-05 18:33 | 50.10164 | 14.13418 | 11531 ft | 341 kts | 266° |
| 2026-05-05 18:34 | 50.10114 | 14.09704 | 11745 ft | 342 kts | 266° |
| 2026-05-05 18:34 | 50.10063 | 14.05996 | 11957 ft | 344 kts | 266° |
| 2026-05-05 18:34 | 50.10009 | 14.02262 | 12156 ft | 345 kts | 266° |
| 2026-05-05 18:34 | 50.09955 | 13.98524 | 12366 ft | 346 kts | 266° |
| 2026-05-05 18:35 | 50.09898 | 13.94759 | 12554 ft | 348 kts | 266° |
| 2026-05-05 18:35 | 50.09840 | 13.90977 | 12751 ft | 349 kts | 266° |
| 2026-05-05 18:35 | 50.09781 | 13.87182 | 12964 ft | 350 kts | 266° |
| 2026-05-05 18:35 | 50.09720 | 13.83388 | 13152 ft | 351 kts | 266° |
| 2026-05-05 18:36 | 50.09658 | 13.79588 | 13346 ft | 353 kts | 266° |
| 2026-05-05 18:36 | 50.09594 | 13.75747 | 13537 ft | 354 kts | 266° |
| 2026-05-05 18:36 | 50.09529 | 13.71903 | 13716 ft | 355 kts | 266° |
| 2026-05-05 18:36 | 50.09463 | 13.68051 | 13917 ft | 355 kts | 266° |
| 2026-05-05 18:37 | 50.09395 | 13.64205 | 14080 ft | 356 kts | 266° |
| 2026-05-05 18:37 | 50.09325 | 13.60326 | 14225 ft | 357 kts | 266° |
| 2026-05-05 18:37 | 50.09253 | 13.56454 | 14376 ft | 357 kts | 266° |
| 2026-05-05 18:37 | 50.09181 | 13.52580 | 14479 ft | 358 kts | 266° |
| 2026-05-05 18:38 | 50.09107 | 13.48704 | 14604 ft | 358 kts | 266° |
| 2026-05-05 18:38 | 50.09031 | 13.44815 | 14718 ft | 359 kts | 266° |
| 2026-05-05 18:38 | 50.08956 | 13.40977 | 14826 ft | 359 kts | 266° |
| 2026-05-05 18:38 | 50.08880 | 13.37144 | 15337 ft | 345 kts | 265° |
| 2026-05-05 18:39 | 50.08810 | 13.33528 | 16098 ft | 324 kts | 265° |
| 2026-05-05 18:39 | 50.08744 | 13.30144 | 16877 ft | 303 kts | 265° |
| 2026-05-05 18:39 | 50.08681 | 13.26982 | 17648 ft | 281 kts | 264° |
| 2026-05-05 18:39 | 50.08619 | 13.24017 | 18168 ft | 270 kts | 264° |
| 2026-05-05 18:40 | 50.08553 | 13.21078 | 18283 ft | 271 kts | 264° |
| 2026-05-05 18:40 | 50.08484 | 13.18134 | 18395 ft | 272 kts | 264° |
| 2026-05-05 18:40 | 50.08415 | 13.15181 | 18491 ft | 275 kts | 264° |
| 2026-05-05 18:40 | 50.08346 | 13.12176 | 18511 ft | 279 kts | 264° |
| 2026-05-05 18:41 | 50.08299 | 13.10165 | 18533 ft | 282 kts | 264° |
| 2026-05-05 18:41 | 50.08205 | 13.06077 | 18577 ft | 287 kts | 264° |
| 2026-05-05 18:41 | 50.08133 | 13.02949 | 18610 ft | 291 kts | 264° |
| 2026-05-05 18:41 | 50.08059 | 12.99782 | 18644 ft | 295 kts | 264° |
| 2026-05-05 18:42 | 50.07983 | 12.96570 | 18675 ft | 298 kts | 264° |
| 2026-05-05 18:42 | 50.07906 | 12.93320 | 18702 ft | 302 kts | 264° |
| 2026-05-05 18:42 | 50.07854 | 12.91152 | 18731 ft | 304 kts | 264° |
| 2026-05-05 18:42 | 50.07772 | 12.87836 | 18760 ft | 307 kts | 264° |
| 2026-05-05 18:43 | 50.07690 | 12.84496 | 18816 ft | 309 kts | 264° |
| 2026-05-05 18:43 | 50.07608 | 12.81173 | 19041 ft | 304 kts | 264° |
| 2026-05-05 18:43 | 50.07527 | 12.77907 | 19277 ft | 299 kts | 264° |
| 2026-05-05 18:43 | 50.07447 | 12.74694 | 19512 ft | 294 kts | 264° |
| 2026-05-05 18:44 | 50.07367 | 12.71574 | 19749 ft | 289 kts | 264° |
| 2026-05-05 18:44 | 50.07285 | 12.68440 | 19994 ft | 284 kts | 264° |
| 2026-05-05 18:44 | 50.07201 | 12.65336 | 20248 ft | 297 kts | 264° |
| 2026-05-05 18:44 | 50.07107 | 12.62041 | 20515 ft | 316 kts | 264° |
| 2026-05-05 18:45 | 50.07008 | 12.58513 | 20779 ft | 336 kts | 264° |
| 2026-05-05 18:45 | 50.06904 | 12.54771 | 21051 ft | 355 kts | 264° |
| 2026-05-05 18:45 | 50.06798 | 12.50870 | 21310 ft | 367 kts | 264° |
| 2026-05-05 18:45 | 50.06686 | 12.46821 | 21580 ft | 381 kts | 265° |
| 2026-05-05 18:46 | 50.06570 | 12.42615 | 21850 ft | 395 kts | 265° |
| 2026-05-05 18:46 | 50.06466 | 12.38309 | 22114 ft | 401 kts | 266° |
| 2026-05-05 18:46 | 50.06499 | 12.33958 | 22389 ft | 403 kts | 269° |
| 2026-05-05 18:46 | 50.06568 | 12.29583 | 22652 ft | 405 kts | 265° |
| 2026-05-05 18:47 | 50.06104 | 12.25285 | 22933 ft | 402 kts | 249° |
| 2026-05-05 18:47 | 50.04981 | 12.21318 | 23214 ft | 401 kts | 239° |
| 2026-05-05 18:47 | 50.03605 | 12.17522 | 23471 ft | 403 kts | 238° |
| 2026-05-05 18:47 | 50.02212 | 12.13735 | 23701 ft | 404 kts | 238° |
| 2026-05-05 18:48 | 50.00845 | 12.09858 | 23980 ft | 408 kts | 239° |
| 2026-05-05 18:48 | 49.99544 | 12.06009 | 24546 ft | 409 kts | 240° |
| 2026-05-05 18:48 | 49.98193 | 12.01918 | 25081 ft | 412 kts | 240° |
| 2026-05-05 18:48 | 49.96950 | 11.98119 | 25533 ft | 415 kts | 240° |
| 2026-05-05 18:49 | 49.95609 | 11.94009 | 26034 ft | 418 kts | 240° |
| 2026-05-05 18:49 | 49.94289 | 11.89964 | 26531 ft | 420 kts | 240° |
| 2026-05-05 18:49 | 49.92955 | 11.85887 | 26991 ft | 424 kts | 240° |
| 2026-05-05 18:49 | 49.91616 | 11.81806 | 27445 ft | 426 kts | 240° |
| 2026-05-05 18:50 | 49.90265 | 11.77694 | 27883 ft | 429 kts | 240° |
| 2026-05-05 18:50 | 49.88900 | 11.73549 | 28318 ft | 432 kts | 240° |
| 2026-05-05 18:50 | 49.87531 | 11.69395 | 28735 ft | 434 kts | 240° |
| 2026-05-05 18:50 | 49.86152 | 11.65218 | 29133 ft | 437 kts | 239° |
| 2026-05-05 18:51 | 49.84757 | 11.61002 | 29527 ft | 439 kts | 239° |
| 2026-05-05 18:51 | 49.83378 | 11.56839 | 29901 ft | 442 kts | 239° |
| 2026-05-05 18:51 | 49.81968 | 11.52592 | 30257 ft | 444 kts | 239° |
| 2026-05-05 18:51 | 49.80554 | 11.48337 | 30616 ft | 445 kts | 239° |
| 2026-05-05 18:52 | 49.79135 | 11.44077 | 30994 ft | 446 kts | 239° |
| 2026-05-05 18:52 | 49.77709 | 11.39803 | 31453 ft | 446 kts | 239° |
| 2026-05-05 18:52 | 49.76270 | 11.35493 | 31952 ft | 443 kts | 239° |
| 2026-05-05 18:52 | 49.74858 | 11.31273 | 32446 ft | 441 kts | 239° |
| 2026-05-05 18:53 | 49.73449 | 11.27070 | 32917 ft | 440 kts | 239° |
| 2026-05-05 18:53 | 49.72040 | 11.22875 | 33388 ft | 438 kts | 239° |
| 2026-05-05 18:53 | 49.70642 | 11.18719 | 33750 ft | 436 kts | 239° |
| 2026-05-05 18:53 | 49.69261 | 11.14621 | 33825 ft | 434 kts | 239° |
| 2026-05-05 18:54 | 49.66276 | 11.06497 | 33823 ft | 430 kts | 232° |
| 2026-05-05 18:54 | 49.62490 | 10.99411 | 33829 ft | 427 kts | 223° |
| 2026-05-05 18:55 | 49.58430 | 10.92807 | 33831 ft | 428 kts | 226° |
| 2026-05-05 18:55 | 49.54488 | 10.85920 | 33830 ft | 428 kts | 225° |
| 2026-05-05 18:56 | 49.50555 | 10.79030 | 33826 ft | 429 kts | 226° |
| 2026-05-05 18:56 | 49.46637 | 10.72094 | 33834 ft | 429 kts | 226° |
| 2026-05-05 18:57 | 49.42689 | 10.65102 | 33842 ft | 430 kts | 226° |
| 2026-05-05 18:57 | 49.38786 | 10.58208 | 33851 ft | 431 kts | 226° |
| 2026-05-05 18:58 | 49.34845 | 10.51268 | 33867 ft | 431 kts | 226° |
| 2026-05-05 18:58 | 49.30896 | 10.44332 | 33862 ft | 432 kts | 226° |
| 2026-05-05 18:59 | 49.26936 | 10.37395 | 33864 ft | 432 kts | 226° |
| 2026-05-05 18:59 | 49.22967 | 10.30462 | 33859 ft | 433 kts | 226° |
| 2026-05-05 19:00 | 49.18992 | 10.23535 | 33857 ft | 433 kts | 226° |
| 2026-05-05 19:00 | 49.15041 | 10.16668 | 33851 ft | 433 kts | 226° |
| 2026-05-05 19:01 | 49.11050 | 10.09753 | 33843 ft | 433 kts | 226° |
| 2026-05-05 19:01 | 49.07055 | 10.02846 | 33837 ft | 433 kts | 226° |
| 2026-05-05 19:02 | 49.03059 | 9.95957 | 33835 ft | 433 kts | 226° |
| 2026-05-05 19:02 | 48.99061 | 9.89081 | 33818 ft | 433 kts | 226° |
| 2026-05-05 19:03 | 48.97067 | 9.85659 | 33621 ft | 431 kts | 226° |
| 2026-05-05 19:03 | 48.95059 | 9.82217 | 33079 ft | 429 kts | 226° |
| 2026-05-05 19:03 | 48.93066 | 9.78806 | 32347 ft | 429 kts | 226° |
| 2026-05-05 19:03 | 48.91081 | 9.75413 | 31580 ft | 430 kts | 226° |
| 2026-05-05 19:04 | 48.89117 | 9.72060 | 30797 ft | 430 kts | 226° |
| 2026-05-05 19:04 | 48.87100 | 9.68622 | 30046 ft | 430 kts | 226° |
| 2026-05-05 19:04 | 48.85139 | 9.65281 | 29388 ft | 426 kts | 226° |
| 2026-05-05 19:04 | 48.83172 | 9.61936 | 28712 ft | 422 kts | 226° |
| 2026-05-05 19:05 | 48.81222 | 9.58625 | 28043 ft | 418 kts | 226° |
| 2026-05-05 19:05 | 48.79287 | 9.55343 | 27376 ft | 414 kts | 226° |
| 2026-05-05 19:05 | 48.77367 | 9.52091 | 26418 ft | 417 kts | 226° |
| 2026-05-05 19:05 | 48.75406 | 9.48778 | 25234 ft | 427 kts | 226° |
| 2026-05-05 19:06 | 48.73418 | 9.45420 | 24428 ft | 427 kts | 226° |
| 2026-05-05 19:06 | 48.71443 | 9.42086 | 23800 ft | 423 kts | 226° |
| 2026-05-05 19:06 | 48.69499 | 9.38806 | 23370 ft | 413 kts | 226° |
| 2026-05-05 19:06 | 48.67606 | 9.35616 | 23081 ft | 400 kts | 226° |
| 2026-05-05 19:07 | 48.65773 | 9.32531 | 22807 ft | 387 kts | 226° |
| 2026-05-05 19:07 | 48.63977 | 9.29513 | 22539 ft | 387 kts | 226° |
| 2026-05-05 19:07 | 48.62121 | 9.26546 | 22265 ft | 388 kts | 222° |
| 2026-05-05 19:07 | 48.60073 | 9.23912 | 22001 ft | 385 kts | 216° |
| 2026-05-05 19:08 | 48.57915 | 9.21525 | 21739 ft | 382 kts | 216° |
| 2026-05-05 19:08 | 48.55768 | 9.19135 | 21473 ft | 380 kts | 216° |
| 2026-05-05 19:08 | 48.53608 | 9.16721 | 21206 ft | 379 kts | 216° |
| 2026-05-05 19:08 | 48.51516 | 9.14382 | 20957 ft | 377 kts | 216° |
| 2026-05-05 19:09 | 48.49413 | 9.12033 | 20708 ft | 375 kts | 216° |
| 2026-05-05 19:09 | 48.47269 | 9.09642 | 20447 ft | 374 kts | 216° |
| 2026-05-05 19:09 | 48.45196 | 9.07333 | 20200 ft | 372 kts | 216° |
| 2026-05-05 19:09 | 48.43067 | 9.04964 | 19951 ft | 371 kts | 216° |
| 2026-05-05 19:10 | 48.40994 | 9.02659 | 19702 ft | 369 kts | 217° |
| 2026-05-05 19:10 | 48.38952 | 9.00393 | 19453 ft | 368 kts | 217° |
| 2026-05-05 19:10 | 48.36919 | 8.98138 | 19219 ft | 367 kts | 217° |
| 2026-05-05 19:10 | 48.34867 | 8.95864 | 19001 ft | 366 kts | 217° |
| 2026-05-05 19:11 | 48.32823 | 8.93601 | 18756 ft | 364 kts | 217° |
| 2026-05-05 19:11 | 48.30789 | 8.91351 | 18518 ft | 363 kts | 217° |
| 2026-05-05 19:11 | 48.28762 | 8.89101 | 18281 ft | 362 kts | 217° |
| 2026-05-05 19:11 | 48.26751 | 8.86860 | 18037 ft | 360 kts | 217° |
| 2026-05-05 19:12 | 48.24738 | 8.84617 | 17871 ft | 357 kts | 217° |
| 2026-05-05 19:12 | 48.22738 | 8.82392 | 17855 ft | 359 kts | 217° |
| 2026-05-05 19:12 | 48.21382 | 8.80885 | 17853 ft | 359 kts | 217° |
| 2026-05-05 19:12 | 48.19405 | 8.78691 | 17855 ft | 358 kts | 217° |
| 2026-05-05 19:13 | 48.17402 | 8.76471 | 17872 ft | 358 kts | 217° |
| 2026-05-05 19:13 | 48.15390 | 8.74258 | 17855 ft | 358 kts | 217° |
| 2026-05-05 19:13 | 48.13374 | 8.72062 | 17868 ft | 358 kts | 217° |
| 2026-05-05 19:13 | 48.11358 | 8.69872 | 17674 ft | 358 kts | 216° |
| 2026-05-05 19:14 | 48.09349 | 8.67692 | 17405 ft | 355 kts | 216° |
| 2026-05-05 19:14 | 48.07360 | 8.65533 | 17151 ft | 353 kts | 217° |
| 2026-05-05 19:14 | 48.05381 | 8.63385 | 16890 ft | 351 kts | 217° |
| 2026-05-05 19:14 | 48.03407 | 8.61243 | 16632 ft | 349 kts | 217° |
| 2026-05-05 19:15 | 48.01445 | 8.59115 | 16366 ft | 348 kts | 217° |
| 2026-05-05 19:15 | 47.99488 | 8.56996 | 16116 ft | 346 kts | 217° |
| 2026-05-05 19:15 | 47.97460 | 8.55091 | 15904 ft | 345 kts | 205° |
| 2026-05-05 19:15 | 47.95137 | 8.54195 | 15874 ft | 349 kts | 187° |
| 2026-05-05 19:16 | 47.92699 | 8.54498 | 15877 ft | 356 kts | 168° |
| 2026-05-05 19:16 | 47.90436 | 8.56045 | 15876 ft | 363 kts | 148° |
| 2026-05-05 19:16 | 47.88457 | 8.58383 | 15878 ft | 366 kts | 144° |
| 2026-05-05 19:16 | 47.86495 | 8.60796 | 15878 ft | 366 kts | 143° |
| 2026-05-05 19:17 | 47.84530 | 8.63216 | 15878 ft | 365 kts | 143° |
| 2026-05-05 19:17 | 47.82588 | 8.65594 | 15883 ft | 365 kts | 144° |
| 2026-05-05 19:17 | 47.80616 | 8.67996 | 15882 ft | 365 kts | 144° |
| 2026-05-05 19:17 | 47.78651 | 8.70381 | 15885 ft | 366 kts | 144° |
| 2026-05-05 19:18 | 47.76670 | 8.72781 | 15883 ft | 366 kts | 144° |
| 2026-05-05 19:18 | 47.74695 | 8.75170 | 15883 ft | 366 kts | 144° |
| 2026-05-05 19:18 | 47.72724 | 8.77550 | 15882 ft | 366 kts | 144° |
| 2026-05-05 19:18 | 47.70849 | 8.79812 | 15881 ft | 366 kts | 144° |
| 2026-05-05 19:19 | 47.68874 | 8.82191 | 15885 ft | 366 kts | 144° |
| 2026-05-05 19:19 | 47.66894 | 8.84576 | 15883 ft | 366 kts | 144° |
| 2026-05-05 19:19 | 47.64915 | 8.86956 | 15883 ft | 366 kts | 144° |
| 2026-05-05 19:19 | 47.63025 | 8.89465 | 15886 ft | 360 kts | 136° |
| 2026-05-05 19:20 | 47.61509 | 8.92261 | 15879 ft | 345 kts | 127° |
| 2026-05-05 19:20 | 47.60340 | 8.95279 | 15883 ft | 331 kts | 120° |
| 2026-05-05 19:20 | 47.59324 | 8.98245 | 15878 ft | 314 kts | 120° |
| 2026-05-05 19:20 | 47.58351 | 9.01047 | 15882 ft | 298 kts | 121° |
| 2026-05-05 19:21 | 47.57422 | 9.03703 | 15881 ft | 282 kts | 121° |
| 2026-05-05 19:21 | 47.56386 | 9.06025 | 15879 ft | 261 kts | 142° |
| 2026-05-05 19:21 | 47.54834 | 9.07358 | 15884 ft | 259 kts | 170° |
| 2026-05-05 19:21 | 47.53084 | 9.07425 | 15882 ft | 250 kts | 197° |
| 2026-05-05 19:22 | 47.51519 | 9.06398 | 15885 ft | 246 kts | 218° |
| 2026-05-05 19:22 | 47.50322 | 9.04616 | 15883 ft | 245 kts | 237° |
| 2026-05-05 19:22 | 47.49648 | 9.02317 | 15886 ft | 246 kts | 257° |
| 2026-05-05 19:22 | 47.49621 | 8.99788 | 15890 ft | 250 kts | 279° |
| 2026-05-05 19:23 | 47.50264 | 8.97384 | 15887 ft | 255 kts | 294° |
| 2026-05-05 19:23 | 47.51095 | 8.95064 | 15885 ft | 254 kts | 294° |
| 2026-05-05 19:23 | 47.52200 | 8.93012 | 15890 ft | 262 kts | 320° |
| 2026-05-05 19:23 | 47.53867 | 8.91934 | 15878 ft | 273 kts | 348° |
| 2026-05-05 19:24 | 47.55779 | 8.92095 | 15754 ft | 281 kts | 15° |
| 2026-05-05 19:24 | 47.57578 | 8.93249 | 15542 ft | 283 kts | 28° |
| 2026-05-05 19:24 | 47.59211 | 8.94869 | 15288 ft | 281 kts | 36° |
| 2026-05-05 19:24 | 47.60798 | 8.96552 | 15041 ft | 280 kts | 30° |
| 2026-05-05 19:25 | 47.62481 | 8.97973 | 14799 ft | 278 kts | 27° |
| 2026-05-05 19:25 | 47.64092 | 8.99557 | 14551 ft | 279 kts | 40° |
| 2026-05-05 19:25 | 47.65289 | 9.01808 | 14306 ft | 279 kts | 66° |
| 2026-05-05 19:25 | 47.65694 | 9.04573 | 14071 ft | 275 kts | 94° |
| 2026-05-05 19:26 | 47.65594 | 9.07408 | 13836 ft | 275 kts | 96° |
| 2026-05-05 19:26 | 47.65461 | 9.10229 | 13588 ft | 273 kts | 97° |
| 2026-05-05 19:26 | 47.65323 | 9.13035 | 13316 ft | 271 kts | 97° |
| 2026-05-05 19:26 | 47.65126 | 9.15806 | 13038 ft | 269 kts | 108° |
| 2026-05-05 19:27 | 47.64324 | 9.18242 | 12774 ft | 260 kts | 134° |
| 2026-05-05 19:27 | 47.62953 | 9.19887 | 12523 ft | 250 kts | 159° |
| 2026-05-05 19:27 | 47.61315 | 9.20536 | 12267 ft | 242 kts | 182° |
| 2026-05-05 19:27 | 47.59681 | 9.20188 | 12009 ft | 234 kts | 204° |
| 2026-05-05 19:28 | 47.58316 | 9.18995 | 11752 ft | 230 kts | 224° |
| 2026-05-05 19:28 | 47.57349 | 9.17138 | 11510 ft | 228 kts | 244° |
| 2026-05-05 19:28 | 47.56915 | 9.14880 | 11259 ft | 230 kts | 264° |
| 2026-05-05 19:28 | 47.56990 | 9.12512 | 11012 ft | 231 kts | 272° |
| 2026-05-05 19:29 | 47.57120 | 9.10145 | 10768 ft | 230 kts | 272° |
| 2026-05-05 19:29 | 47.57235 | 9.07796 | 10527 ft | 229 kts | 271° |
| 2026-05-05 19:29 | 47.57344 | 9.05447 | 10280 ft | 227 kts | 271° |
| 2026-05-05 19:29 | 47.57485 | 9.03117 | 10026 ft | 229 kts | 279° |
| 2026-05-05 19:30 | 47.58022 | 9.00874 | 9797 ft | 232 kts | 286° |
| 2026-05-05 19:30 | 47.58536 | 8.98546 | 9549 ft | 244 kts | 283° |
| 2026-05-05 19:30 | 47.59034 | 8.96134 | 9285 ft | 243 kts | 283° |
| 2026-05-05 19:30 | 47.59525 | 8.93755 | 9024 ft | 240 kts | 283° |
| 2026-05-05 19:31 | 47.60012 | 8.91389 | 8810 ft | 240 kts | 283° |
| 2026-05-05 19:31 | 47.60483 | 8.89060 | 8557 ft | 237 kts | 279° |
| 2026-05-05 19:31 | 47.60441 | 8.86660 | 8292 ft | 230 kts | 249° |
| 2026-05-05 19:31 | 47.59653 | 8.84667 | 8049 ft | 229 kts | 234° |
| 2026-05-05 19:32 | 47.58666 | 8.82818 | 7788 ft | 229 kts | 223° |
| 2026-05-05 19:32 | 47.57265 | 8.81738 | 7540 ft | 233 kts | 193° |
| 2026-05-05 19:32 | 47.55640 | 8.81922 | 7292 ft | 242 kts | 163° |
| 2026-05-05 19:32 | 47.54249 | 8.83369 | 7056 ft | 253 kts | 132° |
| 2026-05-05 19:33 | 47.53311 | 8.85595 | 6983 ft | 256 kts | 122° |
| 2026-05-05 19:33 | 47.52489 | 8.87933 | 6974 ft | 255 kts | 120° |
| 2026-05-05 19:33 | 47.51780 | 8.90357 | 6981 ft | 258 kts | 110° |
| 2026-05-05 19:33 | 47.51282 | 8.92900 | 6975 ft | 258 kts | 108° |
| 2026-05-05 19:34 | 47.50761 | 8.95435 | 6978 ft | 257 kts | 113° |
| 2026-05-05 19:34 | 47.49815 | 8.97606 | 6976 ft | 250 kts | 142° |
| 2026-05-05 19:34 | 47.48324 | 8.98770 | 6969 ft | 241 kts | 173° |
| 2026-05-05 19:35 | 47.45398 | 8.97321 | 6926 ft | 228 kts | 233° |
| 2026-05-05 19:35 | 47.44724 | 8.95231 | 6635 ft | 227 kts | 253° |
| 2026-05-05 19:35 | 47.44302 | 8.93090 | 6480 ft | 218 kts | 253° |
| 2026-05-05 19:35 | 47.43886 | 8.90987 | 6354 ft | 207 kts | 253° |
| 2026-05-05 19:36 | 47.43490 | 8.88980 | 6101 ft | 204 kts | 253° |
| 2026-05-05 19:36 | 47.43090 | 8.86970 | 5779 ft | 203 kts | 253° |
| 2026-05-05 19:36 | 47.42685 | 8.84973 | 5483 ft | 202 kts | 253° |
| 2026-05-05 19:36 | 47.42440 | 8.82953 | 5168 ft | 201 kts | 275° |
| 2026-05-05 19:37 | 47.42897 | 8.81025 | 5013 ft | 202 kts | 294° |
| 2026-05-05 19:37 | 47.43513 | 8.79143 | 4960 ft | 198 kts | 291° |
| 2026-05-05 19:37 | 47.43953 | 8.77365 | 4960 ft | 171 kts | 284° |
| 2026-05-05 19:37 | 47.44249 | 8.75767 | 4968 ft | 149 kts | 280° |
| 2026-05-05 19:38 | 47.44422 | 8.74410 | 4966 ft | 125 kts | 276° |
| 2026-05-05 19:38 | 47.44534 | 8.73088 | 4975 ft | 130 kts | 274° |
| 2026-05-05 19:38 | 47.44627 | 8.71768 | 4944 ft | 130 kts | 273° |
| 2026-05-05 19:38 | 47.44729 | 8.70434 | 4733 ft | 130 kts | 274° |
| 2026-05-05 19:39 | 47.44856 | 8.69130 | 4454 ft | 128 kts | 276° |
| 2026-05-05 19:39 | 47.44972 | 8.67822 | 4135 ft | 126 kts | 271° |
| 2026-05-05 19:39 | 47.44992 | 8.66513 | 3942 ft | 129 kts | 268° |
| 2026-05-05 19:39 | 47.44931 | 8.65218 | 3788 ft | 128 kts | 260° |
| 2026-05-05 19:40 | 47.44728 | 8.63898 | 3418 ft | 135 kts | 253° |
| 2026-05-05 19:40 | 47.44589 | 8.62542 | 2995 ft | 137 kts | 273° |
| 2026-05-05 19:40 | 47.44808 | 8.61167 | 2608 ft | 141 kts | 288° |
| 2026-05-05 19:40 | 47.45181 | 8.59809 | 2175 ft | 140 kts | 290° |
| 2026-05-05 19:41 | 47.45501 | 8.58488 | 1795 ft | 140 kts | 285° |
| 2026-05-05 19:41 | 47.45657 | 8.57080 | 1477 ft | 136 kts | 273° |
| 2026-05-05 19:41 | 47.45740 | 8.55809 | 1410 ft | 104 kts | 277° |
| 2026-05-05 19:41 | 47.45800 | 8.55056 | 1393 ft | 32 kts | 276° |
| 2026-05-05 19:42 | 47.45824 | 8.54730 | 1390 ft | 33 kts | 274° |
| 2026-05-05 19:42 | 47.45798 | 8.54422 | 1388 ft | 21 kts | 258° |
| 2026-05-05 19:42 | 47.45776 | 8.54335 | 1384 ft | 5 kts | 245° |
| 2026-05-05 19:42 | 47.45772 | 8.54320 | 1386 ft | 0 kts | 245° |
| 2026-05-05 19:44 | 47.45766 | 8.54301 | 1385 ft | 5 kts | 246° |
| 2026-05-05 19:44 | 47.45739 | 8.54235 | 1385 ft | 10 kts | 230° |
| 2026-05-05 19:44 | 47.45665 | 8.54205 | 1385 ft | 13 kts | 166° |
| 2026-05-05 19:44 | 47.45609 | 8.54296 | 1384 ft | 13 kts | 107° |
| 2026-05-05 19:45 | 47.45580 | 8.54427 | 1384 ft | 14 kts | 108° |
| 2026-05-05 19:45 | 47.45546 | 8.54572 | 1385 ft | 15 kts | 110° |
| 2026-05-05 19:45 | 47.45515 | 8.54718 | 1389 ft | 14 kts | 109° |
| 2026-05-05 19:45 | 47.45494 | 8.54812 | 1388 ft | 0 kts | 107° |
| 2026-05-05 19:47 | 47.45489 | 8.54836 | 1389 ft | 4 kts | 106° |
| 2026-05-05 19:48 | 47.45482 | 8.54871 | 1398 ft | 6 kts | 107° |
| 2026-05-05 19:48 | 47.45465 | 8.54942 | 1396 ft | 8 kts | 111° |
| 2026-05-05 19:48 | 47.45441 | 8.55042 | 1399 ft | 12 kts | 109° |
| 2026-05-05 19:48 | 47.45410 | 8.55171 | 1397 ft | 14 kts | 109° |
| 2026-05-05 19:49 | 47.45370 | 8.55311 | 1405 ft | 14 kts | 117° |
| 2026-05-05 19:49 | 47.45326 | 8.55440 | 1407 ft | 11 kts | 110° |
| 2026-05-05 19:49 | 47.45315 | 8.55471 | 1407 ft | 0 kts | 122° |
| 2026-05-05 19:49 | 47.45308 | 8.55488 | 1407 ft | 3 kts | 121° |
| 2026-05-05 19:50 | 47.45294 | 8.55523 | 1412 ft | 4 kts | 120° |
| 2026-05-05 19:50 | 47.45280 | 8.55565 | 1410 ft | 5 kts | 109° |
| 2026-05-05 19:50 | 47.45274 | 8.55620 | 1408 ft | 4 kts | 79° |
| 2026-05-05 19:50 | 47.45306 | 8.55640 | 1409 ft | 7 kts | 9° |
| 2026-05-05 19:51 | 47.45346 | 8.55646 | 1413 ft | 3 kts | 6° |
| 2026-05-05 19:51 | 47.45352 | 8.55647 | 1413 ft | 0 kts | 6° |